Lowgap, North Carolina
Current Conditions -  °F | °C
As of 1:35 AM on Tuesday 21 Oct 2014 (Local Time) from KHLX Reporting Station
Scattered Clouds Scattered Clouds  
Wind Chill: 53°   Ceiling: Unl
Heat Index: 53°   Visibility: 10mi
Dew Point: 45°   Wind: 3mph
Humidity: 76%   Direction: 280°W
Pressure: 29.98"   Gusts: NA
Location:  36.53°N, 80.87°W
Report Text: KHLX 210535Z AUTO 28003KT 10SM SCT080 11/07 A2998 RMK AO2 T01140073
Loading
Personal Weather Stations






























Interactive Weather Map
Tropical Storm Tracking
New forecast layout! Learn more

10-Day Weather Forecast

Advertisements
Track Severe Weather on mobile